Flight Track Log - Related Links

Times and Time Zones

All times are in EDT time to prevent confusion due to time zone crossing. See the HYD40 flight status page for this flight to view local times or setup timezone preferences in your user account.

Time Position Orientation Groundspeed Altitude Reporting Facility
EDT Latitude Longitude Course Direction KTS MPH feet Rate Location/Type
Thu 03:06:02 PM 46.7667 -71.4500 250° West 150 173 2,400  Level Montreal Center
Thu 03:07:02 PM 46.7667 -71.5000 270° West 160 184 4,000 1,550 Climbing Montreal Center
Thu 03:08:02 PM 46.7500 -71.5667 250° West 170 196 5,500 1,450 Climbing Montreal Center
Thu 03:09:02 PM 46.7167 -71.5833 199° South 170 196 6,900 1,500 Climbing Montreal Center
Thu 03:10:00 PM 46.5150 -71.7456 224° Southwest  Level FlightAware Approximate
Thu 03:10:02 PM 46.6667 -71.6333 214° Southwest 170 196 8,500  Level Montreal Center
Thu 03:11:02 PM 46.6333 -71.6667 214° Southwest 170 196 9,800 1,300 Climbing Montreal Center
Thu 03:12:02 PM 46.6000 -71.7167 226° Southwest 180 207 11,100 1,200 Climbing Montreal Center
Thu 03:13:02 PM 46.5500 -71.7500 205° Southwest 180 207 12,200 950 Climbing Montreal Center
Thu 03:14:02 PM 46.5000 -71.8000 215° Southwest 200 230 13,000 400 Climbing Montreal Center
Thu 03:15:02 PM 46.4667 -71.8500 226° Southwest 220 253 13,000 500 Level Montreal Center
Thu 03:16:02 PM 46.4000 -71.9333 221° Southwest 220 253 14,000 500 Climbing Montreal Center
Thu 03:17:02 PM 46.3667 -71.9833 226° Southwest 220 253 14,000  Level Montreal Center
Thu 03:18:02 PM 46.3333 -72.0500 234° Southwest 240 276 14,000  Level Montreal Center
Thu 03:19:02 PM 46.2833 -72.1333 229° Southwest 240 276 14,000  Level Montreal Center
Thu 03:20:02 PM 46.2333 -72.1833 215° Southwest 240 276 14,000  Level Montreal Center
Thu 03:21:02 PM 46.1833 -72.2667 229° Southwest 250 288 14,000  Level Montreal Center
Thu 03:22:02 PM 46.1333 -72.3333 223° Southwest 250 288 14,000  Level Montreal Center
Thu 03:23:02 PM 46.0833 -72.4167 229° Southwest 240 276 14,000  Level Montreal Center
Thu 03:24:02 PM 46.0333 -72.4667 215° Southwest 240 276 14,000  Level Montreal Center
Thu 03:25:02 PM 45.9833 -72.5333 223° Southwest 240 276 14,000  Level Montreal Center
Thu 03:26:02 PM 45.9500 -72.6167 240° Southwest 240 276 14,000  Level Montreal Center
Thu 03:27:02 PM 45.9167 -72.6833 234° Southwest 240 276 14,000  Level Montreal Center
Thu 03:28:02 PM 45.8833 -72.7833 244° Southwest 240 276 14,000 -50 Level Montreal Center
Thu 03:29:02 PM 45.8333 -72.8667 229° Southwest 240 276 13,900 -700 Descending Montreal Center
Thu 03:30:02 PM 45.7833 -72.9333 223° Southwest 260 299 12,600 -1,350 Descending Montreal Center
Thu 03:31:02 PM 45.7500 -73.0333 244° Southwest 260 299 11,200 -1,350 Descending Montreal Center
Thu 03:32:02 PM 45.7333 -73.1333 257° West 250 288 9,900 -1,350 Descending Montreal Center
Thu 03:33:02 PM 45.7167 -73.2333 257° West 250 288 8,500 -1,400 Descending Montreal Center
Thu 03:34:02 PM 45.6833 -73.3000 234° Southwest 250 288 7,100 -1,350 Descending Montreal Center
Thu 03:35:02 PM 45.6667 -73.4000 257° West 230 265 5,800 -1,300 Descending Montreal Center
Thu 03:36:02 PM 45.6333 -73.5000 245° Southwest 240 276 4,500 -1,250 Descending Montreal Center
Thu 03:37:02 PM 45.6000 -73.5500 226° Southwest 210 242 3,300 -1,150 Descending Montreal Center
Thu 03:38:02 PM 45.5500 -73.6167 223° Southwest 210 242 2,200 -1,050 Descending Montreal Center
Thu 03:39:02 PM 45.5167 -73.6667 226° Southwest 200 230 1,200 -900 Descending Montreal Center
Thu 03:40:02 PM 45.4833 -73.7167 226° Southwest 120 138 400 -550 Descending Montreal Center
Thu 03:41:02 PM 45.4667 -73.7500 235° Southwest 80 92 100 -150 Descending Montreal Center
Thu 03:42:02 PM 45.4667 -73.7167 90° East 20 23 100  Level Montreal Center

Login

Don't have an account? Register now (free) for customized features, flight alerts, and more!